sensor_id;sensor_type;location;lat;lon;timestamp;P1;durP1;ratioP1;P2;durP2;ratioP2
14520;SDS011;7347;50.844;4.490;2022-09-14T11:35:20;7.30;;;4.70;;
14520;SDS011;7347;50.844;4.490;2022-09-14T11:37:50;8.00;;;4.40;;
14520;SDS011;7347;50.844;4.490;2022-09-14T11:40:22;6.73;;;4.40;;
14520;SDS011;7347;50.844;4.490;2022-09-14T11:42:55;6.87;;;4.47;;
14520;SDS011;7347;50.844;4.490;2022-09-14T11:45:26;5.70;;;4.07;;
14520;SDS011;7347;50.844;4.490;2022-09-14T11:48:00;6.07;;;4.43;;
14520;SDS011;7347;50.844;4.490;2022-09-14T11:50:34;5.90;;;4.10;;
14520;SDS011;7347;50.844;4.490;2022-09-14T11:53:08;5.17;;;4.07;;
14520;SDS011;7347;50.844;4.490;2022-09-14T11:55:36;5.43;;;4.00;;
14520;SDS011;7347;50.844;4.490;2022-09-14T11:58:13;6.03;;;4.00;;
14520;SDS011;7347;50.844;4.490;2022-09-14T12:01:00;6.23;;;4.43;;
14520;SDS011;7347;50.844;4.490;2022-09-14T12:12:26;6.10;;;3.90;;
14520;SDS011;7347;50.844;4.490;2022-09-14T12:14:57;5.67;;;4.27;;
14520;SDS011;7347;50.844;4.490;2022-09-14T12:17:25;5.90;;;4.10;;
14520;SDS011;7347;50.844;4.490;2022-09-14T12:19:58;6.87;;;4.50;;
14520;SDS011;7347;50.844;4.490;2022-09-14T12:22:40;6.93;;;4.03;;
14520;SDS011;7347;50.844;4.490;2022-09-14T12:25:13;6.13;;;4.27;;
14520;SDS011;7347;50.844;4.490;2022-09-14T12:27:43;6.87;;;3.80;;
14520;SDS011;7347;50.844;4.490;2022-09-14T12:39:28;6.30;;;4.70;;
14520;SDS011;7347;50.844;4.490;2022-09-14T12:41:57;6.67;;;4.30;;
14520;SDS011;7347;50.844;4.490;2022-09-14T12:44:30;7.37;;;3.93;;
14520;SDS011;7347;50.844;4.490;2022-09-14T12:50:04;6.23;;;3.70;;
14520;SDS011;7347;50.844;4.490;2022-09-14T12:52:39;6.67;;;3.93;;
14520;SDS011;7347;50.844;4.490;2022-09-14T12:55:15;6.57;;;4.20;;
14520;SDS011;7347;50.844;4.490;2022-09-14T12:57:54;8.77;;;4.03;;
14520;SDS011;7347;50.844;4.490;2022-09-14T13:00:28;6.33;;;4.00;;
14520;SDS011;7347;50.844;4.490;2022-09-14T13:03:17;7.73;;;4.30;;
14520;SDS011;7347;50.844;4.490;2022-09-14T13:05:54;8.07;;;4.60;;
14520;SDS011;7347;50.844;4.490;2022-09-14T13:08:22;7.10;;;4.80;;
14520;SDS011;7347;50.844;4.490;2022-09-14T13:10:49;8.03;;;4.53;;
14520;SDS011;7347;50.844;4.490;2022-09-14T13:13:18;9.10;;;4.93;;
14520;SDS011;7347;50.844;4.490;2022-09-14T13:15:48;7.10;;;4.70;;
14520;SDS011;7347;50.844;4.490;2022-09-14T13:18:26;6.93;;;4.57;;
14520;SDS011;7347;50.844;4.490;2022-09-14T13:20:57;8.90;;;4.80;;
14520;SDS011;7347;50.844;4.490;2022-09-14T13:23:26;7.37;;;4.60;;
14520;SDS011;7347;50.844;4.490;2022-09-14T13:25:55;8.07;;;4.73;;
14520;SDS011;7347;50.844;4.490;2022-09-14T13:28:22;7.67;;;5.30;;
14520;SDS011;7347;50.844;4.490;2022-09-14T13:30:53;8.80;;;5.07;;
14520;SDS011;7347;50.844;4.490;2022-09-14T13:33:21;8.70;;;5.27;;
14520;SDS011;7347;50.844;4.490;2022-09-14T13:35:49;7.07;;;5.03;;
14520;SDS011;7347;50.844;4.490;2022-09-14T13:38:18;11.53;;;5.67;;
14520;SDS011;7347;50.844;4.490;2022-09-14T13:40:48;10.53;;;5.50;;
14520;SDS011;7347;50.844;4.490;2022-09-14T13:43:19;8.93;;;5.47;;
14520;SDS011;7347;50.844;4.490;2022-09-14T13:45:47;11.50;;;5.67;;
14520;SDS011;7347;50.844;4.490;2022-09-14T13:48:15;9.03;;;5.30;;
14520;SDS011;7347;50.844;4.490;2022-09-14T13:50:50;10.90;;;6.33;;
14520;SDS011;7347;50.844;4.490;2022-09-14T13:56:22;7.93;;;4.97;;
14520;SDS011;7347;50.844;4.490;2022-09-14T14:01:39;8.53;;;4.90;;
14520;SDS011;7347;50.844;4.490;2022-09-14T14:04:17;8.37;;;4.87;;
14520;SDS011;7347;50.844;4.490;2022-09-14T14:07:02;8.63;;;5.20;;
14520;SDS011;7347;50.844;4.490;2022-09-14T14:09:45;7.20;;;4.97;;
14520;SDS011;7347;50.844;4.490;2022-09-14T14:12:20;9.13;;;4.57;;
14520;SDS011;7347;50.844;4.490;2022-09-14T14:14:53;9.37;;;5.53;;
14520;SDS011;7347;50.844;4.490;2022-09-14T14:17:22;7.97;;;4.80;;
14520;SDS011;7347;50.844;4.490;2022-09-14T14:22:57;8.70;;;5.00;;
14520;SDS011;7347;50.844;4.490;2022-09-14T14:25:31;8.17;;;4.80;;
14520;SDS011;7347;50.844;4.490;2022-09-14T14:27:59;12.20;;;5.17;;
14520;SDS011;7347;50.844;4.490;2022-09-14T14:30:28;12.40;;;4.83;;
14520;SDS011;7347;50.844;4.490;2022-09-14T14:32:56;9.37;;;5.53;;
14520;SDS011;7347;50.844;4.490;2022-09-14T14:35:25;9.60;;;4.90;;
14520;SDS011;7347;50.844;4.490;2022-09-14T14:37:53;10.03;;;5.10;;
14520;SDS011;7347;50.844;4.490;2022-09-14T14:40:20;9.07;;;5.53;;
14520;SDS011;7347;50.844;4.490;2022-09-14T14:42:49;6.87;;;5.00;;
14520;SDS011;7347;50.844;4.490;2022-09-14T14:45:17;6.23;;;4.27;;
14520;SDS011;7347;50.844;4.490;2022-09-14T14:47:46;7.83;;;4.37;;
14520;SDS011;7347;50.844;4.490;2022-09-14T14:50:15;5.93;;;4.63;;
14520;SDS011;7347;50.844;4.490;2022-09-14T14:52:43;8.03;;;5.20;;
14520;SDS011;7347;50.844;4.490;2022-09-14T14:55:10;8.47;;;4.37;;
14520;SDS011;7347;50.844;4.490;2022-09-14T14:57:36;8.00;;;4.47;;
14520;SDS011;7347;50.844;4.490;2022-09-14T15:00:06;5.67;;;4.37;;
14520;SDS011;7347;50.844;4.490;2022-09-14T15:02:38;7.50;;;4.20;;
14520;SDS011;7347;50.844;4.490;2022-09-14T15:05:08;5.10;;;3.50;;
14520;SDS011;7347;50.844;4.490;2022-09-14T15:07:34;7.63;;;3.30;;
14520;SDS011;7347;50.844;4.490;2022-09-14T15:10:01;5.33;;;3.30;;
14520;SDS011;7347;50.844;4.490;2022-09-14T15:12:29;6.70;;;3.33;;
14520;SDS011;7347;50.844;4.490;2022-09-14T15:14:56;8.80;;;3.33;;
14520;SDS011;7347;50.844;4.490;2022-09-14T15:17:24;5.40;;;3.00;;
14520;SDS011;7347;50.844;4.490;2022-09-14T15:19:51;3.93;;;2.90;;
14520;SDS011;7347;50.844;4.490;2022-09-14T15:22:18;4.10;;;2.47;;
14520;SDS011;7347;50.844;4.490;2022-09-14T15:24:45;5.40;;;2.60;;
14520;SDS011;7347;50.844;4.490;2022-09-14T15:27:12;5.10;;;2.57;;
14520;SDS011;7347;50.844;4.490;2022-09-14T15:29:39;6.90;;;3.43;;
14520;SDS011;7347;50.844;4.490;2022-09-14T15:32:05;3.77;;;2.67;;
14520;SDS011;7347;50.844;4.490;2022-09-14T15:34:34;5.37;;;2.57;;
14520;SDS011;7347;50.844;4.490;2022-09-14T15:37:00;4.97;;;2.83;;
14520;SDS011;7347;50.844;4.490;2022-09-14T15:39:28;5.53;;;2.90;;
14520;SDS011;7347;50.844;4.490;2022-09-14T15:41:55;7.20;;;3.30;;
14520;SDS011;7347;50.844;4.490;2022-09-14T15:44:22;9.27;;;3.30;;
14520;SDS011;7347;50.844;4.490;2022-09-14T15:46:49;6.53;;;2.87;;
14520;SDS011;7347;50.844;4.490;2022-09-14T15:49:17;6.13;;;2.83;;
14520;SDS011;7347;50.844;4.490;2022-09-14T15:51:48;6.90;;;2.97;;
14520;SDS011;7347;50.844;4.490;2022-09-14T15:54:16;7.07;;;2.67;;
14520;SDS011;7347;50.844;4.490;2022-09-14T15:56:45;5.70;;;2.97;;
14520;SDS011;7347;50.844;4.490;2022-09-14T15:59:14;4.60;;;2.83;;
14520;SDS011;7347;50.844;4.490;2022-09-14T16:01:42;5.33;;;3.13;;
14520;SDS011;7347;50.844;4.490;2022-09-14T16:04:09;8.33;;;3.60;;
14520;SDS011;7347;50.844;4.490;2022-09-14T16:06:36;7.63;;;4.10;;
14520;SDS011;7347;50.844;4.490;2022-09-14T16:09:05;8.00;;;3.63;;
14520;SDS011;7347;50.844;4.490;2022-09-14T16:11:34;6.33;;;3.43;;
14520;SDS011;7347;50.844;4.490;2022-09-14T16:14:02;5.17;;;3.70;;
14520;SDS011;7347;50.844;4.490;2022-09-14T16:16:30;8.77;;;3.83;;
14520;SDS011;7347;50.844;4.490;2022-09-14T16:19:01;7.10;;;4.20;;
14520;SDS011;7347;50.844;4.490;2022-09-14T16:21:29;9.00;;;4.70;;
14520;SDS011;7347;50.844;4.490;2022-09-14T16:23:57;7.73;;;4.33;;
14520;SDS011;7347;50.844;4.490;2022-09-14T16:26:26;7.00;;;4.63;;
14520;SDS011;7347;50.844;4.490;2022-09-14T16:28:56;7.20;;;4.80;;
14520;SDS011;7347;50.844;4.490;2022-09-14T16:31:25;7.47;;;5.20;;
14520;SDS011;7347;50.844;4.490;2022-09-14T16:33:56;7.57;;;5.03;;
14520;SDS011;7347;50.844;4.490;2022-09-14T16:36:25;8.17;;;5.37;;
14520;SDS011;7347;50.844;4.490;2022-09-14T16:38:54;8.43;;;4.83;;
14520;SDS011;7347;50.844;4.490;2022-09-14T16:41:22;10.10;;;5.40;;
14520;SDS011;7347;50.844;4.490;2022-09-14T16:43:53;7.50;;;5.27;;
14520;SDS011;7347;50.844;4.490;2022-09-14T16:46:21;9.53;;;5.33;;
14520;SDS011;7347;50.844;4.490;2022-09-14T16:48:48;10.73;;;6.10;;
14520;SDS011;7347;50.844;4.490;2022-09-14T16:51:16;9.00;;;5.57;;
14520;SDS011;7347;50.844;4.490;2022-09-14T16:53:44;9.30;;;5.10;;
14520;SDS011;7347;50.844;4.490;2022-09-14T16:56:12;9.27;;;5.87;;
14520;SDS011;7347;50.844;4.490;2022-09-14T16:58:40;9.57;;;5.87;;
14520;SDS011;7347;50.844;4.490;2022-09-14T17:01:11;7.27;;;4.87;;
14520;SDS011;7347;50.844;4.490;2022-09-14T17:03:41;8.93;;;5.90;;
14520;SDS011;7347;50.844;4.490;2022-09-14T17:06:11;8.10;;;5.00;;
14520;SDS011;7347;50.844;4.490;2022-09-14T17:08:40;8.67;;;4.80;;
14520;SDS011;7347;50.844;4.490;2022-09-14T17:11:08;6.37;;;4.17;;
14520;SDS011;7347;50.844;4.490;2022-09-14T17:13:36;6.03;;;4.30;;
14520;SDS011;7347;50.844;4.490;2022-09-14T17:16:04;6.70;;;3.73;;
14520;SDS011;7347;50.844;4.490;2022-09-14T17:18:35;8.60;;;3.93;;
14520;SDS011;7347;50.844;4.490;2022-09-14T17:21:03;6.07;;;3.90;;
14520;SDS011;7347;50.844;4.490;2022-09-14T17:23:31;8.10;;;4.97;;
14520;SDS011;7347;50.844;4.490;2022-09-14T17:25:58;6.97;;;4.50;;
14520;SDS011;7347;50.844;4.490;2022-09-14T17:28:26;7.87;;;4.60;;
14520;SDS011;7347;50.844;4.490;2022-09-14T17:30:54;6.63;;;4.10;;
14520;SDS011;7347;50.844;4.490;2022-09-14T17:33:23;6.80;;;4.13;;
14520;SDS011;7347;50.844;4.490;2022-09-14T17:35:51;6.63;;;4.77;;
14520;SDS011;7347;50.844;4.490;2022-09-14T17:38:19;6.27;;;4.03;;
14520;SDS011;7347;50.844;4.490;2022-09-14T17:40:47;5.37;;;3.90;;
14520;SDS011;7347;50.844;4.490;2022-09-14T17:43:14;7.27;;;4.13;;
14520;SDS011;7347;50.844;4.490;2022-09-14T17:45:50;5.70;;;3.90;;
14520;SDS011;7347;50.844;4.490;2022-09-14T17:48:17;7.20;;;4.40;;
14520;SDS011;7347;50.844;4.490;2022-09-14T17:50:44;6.63;;;3.93;;
14520;SDS011;7347;50.844;4.490;2022-09-14T17:53:13;8.47;;;4.97;;
14520;SDS011;7347;50.844;4.490;2022-09-14T17:55:39;7.67;;;4.70;;
14520;SDS011;7347;50.844;4.490;2022-09-14T17:58:07;7.03;;;4.47;;
14520;SDS011;7347;50.844;4.490;2022-09-14T18:00:34;8.23;;;5.20;;
14520;SDS011;7347;50.844;4.490;2022-09-14T18:03:01;7.57;;;4.80;;
14520;SDS011;7347;50.844;4.490;2022-09-14T18:05:29;10.13;;;5.50;;
14520;SDS011;7347;50.844;4.490;2022-09-14T18:07:56;10.57;;;5.17;;
14520;SDS011;7347;50.844;4.490;2022-09-14T18:10:24;9.40;;;5.70;;
14520;SDS011;7347;50.844;4.490;2022-09-14T18:12:51;9.63;;;5.83;;
14520;SDS011;7347;50.844;4.490;2022-09-14T18:15:18;8.43;;;5.43;;
14520;SDS011;7347;50.844;4.490;2022-09-14T18:17:45;8.73;;;5.70;;
14520;SDS011;7347;50.844;4.490;2022-09-14T18:20:12;10.43;;;6.30;;
14520;SDS011;7347;50.844;4.490;2022-09-14T18:22:39;11.13;;;6.00;;
14520;SDS011;7347;50.844;4.490;2022-09-14T18:25:07;8.93;;;6.00;;
14520;SDS011;7347;50.844;4.490;2022-09-14T18:27:36;8.60;;;5.73;;
14520;SDS011;7347;50.844;4.490;2022-09-14T18:30:03;9.80;;;6.20;;
14520;SDS011;7347;50.844;4.490;2022-09-14T18:32:32;8.30;;;5.37;;
14520;SDS011;7347;50.844;4.490;2022-09-14T18:34:59;7.83;;;5.40;;
14520;SDS011;7347;50.844;4.490;2022-09-14T18:37:25;11.40;;;5.07;;
14520;SDS011;7347;50.844;4.490;2022-09-14T18:39:52;10.20;;;5.73;;
14520;SDS011;7347;50.844;4.490;2022-09-14T18:42:19;10.57;;;4.90;;
14520;SDS011;7347;50.844;4.490;2022-09-14T18:44:47;6.10;;;4.40;;
14520;SDS011;7347;50.844;4.490;2022-09-14T18:47:17;8.27;;;4.97;;
14520;SDS011;7347;50.844;4.490;2022-09-14T18:49:45;6.47;;;4.60;;
14520;SDS011;7347;50.844;4.490;2022-09-14T18:52:13;7.37;;;4.40;;
14520;SDS011;7347;50.844;4.490;2022-09-14T18:54:40;9.67;;;4.77;;
14520;SDS011;7347;50.844;4.490;2022-09-14T18:57:07;6.10;;;4.03;;
14520;SDS011;7347;50.844;4.490;2022-09-14T18:59:34;8.20;;;4.83;;
14520;SDS011;7347;50.844;4.490;2022-09-14T19:02:02;7.60;;;4.37;;
14520;SDS011;7347;50.844;4.490;2022-09-14T19:04:29;8.83;;;5.10;;
14520;SDS011;7347;50.844;4.490;2022-09-14T19:06:56;8.00;;;4.73;;
14520;SDS011;7347;50.844;4.490;2022-09-14T19:09:23;9.37;;;5.20;;
14520;SDS011;7347;50.844;4.490;2022-09-14T19:11:50;10.67;;;5.17;;
14520;SDS011;7347;50.844;4.490;2022-09-14T19:14:17;7.17;;;4.70;;
14520;SDS011;7347;50.844;4.490;2022-09-14T19:16:44;7.20;;;4.60;;
14520;SDS011;7347;50.844;4.490;2022-09-14T19:19:13;8.50;;;4.90;;
14520;SDS011;7347;50.844;4.490;2022-09-14T19:21:42;9.03;;;5.20;;
14520;SDS011;7347;50.844;4.490;2022-09-14T19:24:10;7.67;;;4.77;;
14520;SDS011;7347;50.844;4.490;2022-09-14T19:26:39;8.40;;;4.93;;
14520;SDS011;7347;50.844;4.490;2022-09-14T19:29:08;8.03;;;4.90;;
14520;SDS011;7347;50.844;4.490;2022-09-14T19:31:35;9.50;;;4.60;;
14520;SDS011;7347;50.844;4.490;2022-09-14T19:34:02;7.10;;;4.23;;
14520;SDS011;7347;50.844;4.490;2022-09-14T19:36:31;7.40;;;4.83;;
14520;SDS011;7347;50.844;4.490;2022-09-14T19:38:59;7.93;;;4.50;;
14520;SDS011;7347;50.844;4.490;2022-09-14T19:41:28;9.73;;;4.90;;
14520;SDS011;7347;50.844;4.490;2022-09-14T19:43:55;9.10;;;4.83;;
14520;SDS011;7347;50.844;4.490;2022-09-14T19:46:22;8.70;;;5.00;;
14520;SDS011;7347;50.844;4.490;2022-09-14T19:48:49;9.57;;;4.30;;
14520;SDS011;7347;50.844;4.490;2022-09-14T19:51:18;10.07;;;4.73;;
14520;SDS011;7347;50.844;4.490;2022-09-14T19:53:48;7.60;;;4.57;;
14520;SDS011;7347;50.844;4.490;2022-09-14T19:56:17;8.33;;;4.67;;
14520;SDS011;7347;50.844;4.490;2022-09-14T19:58:47;8.93;;;4.27;;
14520;SDS011;7347;50.844;4.490;2022-09-14T20:01:15;6.80;;;4.50;;
14520;SDS011;7347;50.844;4.490;2022-09-14T20:03:43;7.40;;;3.57;;
14520;SDS011;7347;50.844;4.490;2022-09-14T20:06:11;7.90;;;4.37;;
14520;SDS011;7347;50.844;4.490;2022-09-14T20:08:43;9.80;;;4.60;;
14520;SDS011;7347;50.844;4.490;2022-09-14T20:11:12;8.27;;;4.30;;
14520;SDS011;7347;50.844;4.490;2022-09-14T20:13:40;7.50;;;4.57;;
14520;SDS011;7347;50.844;4.490;2022-09-14T20:16:07;8.53;;;5.03;;
14520;SDS011;7347;50.844;4.490;2022-09-14T20:18:36;8.13;;;4.30;;
14520;SDS011;7347;50.844;4.490;2022-09-14T20:21:05;8.93;;;4.10;;
14520;SDS011;7347;50.844;4.490;2022-09-14T20:23:33;9.37;;;4.90;;
14520;SDS011;7347;50.844;4.490;2022-09-14T20:26:01;8.70;;;4.77;;
14520;SDS011;7347;50.844;4.490;2022-09-14T20:28:30;9.87;;;5.00;;
14520;SDS011;7347;50.844;4.490;2022-09-14T20:30:58;8.20;;;4.73;;
